createdAt,value
2018-04-22T00:00:33.266Z,74.51
2018-04-22T00:01:43.273Z,73.99
2018-04-22T00:02:53.003Z,73.52
2018-04-22T00:04:02.997Z,73.52
2018-04-22T00:05:12.726Z,72.96
2018-04-22T00:06:22.785Z,73.61
2018-04-22T00:07:32.247Z,73.27
2018-04-22T00:08:41.975Z,72.52
2018-04-22T00:09:51.983Z,71.81
2018-04-22T00:11:01.980Z,71.34
2018-04-22T00:12:11.712Z,70.97
2018-04-22T00:13:21.446Z,71
2018-04-22T00:14:31.452Z,71.09
2018-04-22T00:15:41.455Z,70.62
2018-04-22T00:16:51.456Z,70.72
2018-04-22T00:18:00.920Z,71
2018-04-22T00:19:10.919Z,70.97
2018-04-22T00:20:20.656Z,72.04
2018-04-22T00:21:30.390Z,72.1
2018-04-22T00:22:40.123Z,72.86
2018-04-22T00:23:49.318Z,72.19
2018-04-22T00:24:59.319Z,72.57
2018-04-22T00:26:09.057Z,75.04
2018-04-22T00:27:18.524Z,75.04
2018-04-22T00:28:28.527Z,75.42
2018-04-22T00:29:38.263Z,75.23
2018-04-22T00:30:48.263Z,76.27
2018-04-22T00:31:57.993Z,77.03
2018-04-22T00:33:07.729Z,77.22
2018-04-22T00:34:17.727Z,77.03
2018-04-22T00:35:27.462Z,77.03
2018-04-22T00:36:37.199Z,76.74
2018-04-22T00:37:47.202Z,76.08
2018-04-22T00:38:57.216Z,75.51
2018-04-22T00:40:06.951Z,74.85
2018-04-22T00:41:16.943Z,74.95
2018-04-22T00:42:26.940Z,74.18
2018-04-22T00:43:36.690Z,74.85
2018-04-22T00:44:46.436Z,74.75
2018-04-22T00:45:56.168Z,74.47
2018-04-22T00:47:05.897Z,74.22
2018-04-22T00:48:15.369Z,74.51
2018-04-22T00:49:25.108Z,74.03
2018-04-22T00:50:34.843Z,73.94
2018-04-22T00:51:44.844Z,73.37
2018-04-22T00:52:54.845Z,72.71
2018-04-22T00:54:04.572Z,72.8
2018-04-22T00:55:14.035Z,71.95
2018-04-22T00:56:24.030Z,72.23
2018-04-22T00:57:33.770Z,71.85
2018-04-22T00:58:43.240Z,71.76
2018-04-22T00:59:52.969Z,71.19
2018-04-22T01:01:02.709Z,70.9
2018-04-22T01:02:12.716Z,70.24
2018-04-22T01:03:22.182Z,70.72
2018-04-22T01:04:31.753Z,70.15
2018-04-22T01:05:41.487Z,70.15
2018-04-22T01:06:50.948Z,70.43
2018-04-22T01:08:00.681Z,70.9
2018-04-22T01:09:10.417Z,71.28
2018-04-22T01:10:20.422Z,72.23
2018-04-22T01:11:29.894Z,72.33
2018-04-22T01:12:39.364Z,72.33
2018-04-22T01:13:49.100Z,72.71
2018-04-22T01:14:58.845Z,73.94
2018-04-22T01:16:08.573Z,73.65
2018-04-22T01:17:18.578Z,73.65
2018-04-22T01:18:28.588Z,74.09
2018-04-22T01:19:38.053Z,73.75
2018-04-22T01:20:48.055Z,73.9
2018-04-22T01:21:58.064Z,73.99
2018-04-22T01:23:07.531Z,73.71
2018-04-22T01:24:17.536Z,73.8
2018-04-22T01:25:27.277Z,73.9
2018-04-22T01:26:37.007Z,73.71
2018-04-22T01:27:46.775Z,74.37
2018-04-22T01:28:56.246Z,74.56
2018-04-22T01:30:05.975Z,74.28
2018-04-22T01:31:15.709Z,74.56
2018-04-22T01:32:25.451Z,74.37
2018-04-22T01:33:35.458Z,75.04
2018-04-22T01:34:45.183Z,74.95
2018-04-22T01:35:55.192Z,75.23
2018-04-22T01:37:04.931Z,75.6
2018-04-22T01:38:14.677Z,75.32
2018-04-22T01:39:24.682Z,75.13
2018-04-22T01:40:34.409Z,75.6
2018-04-22T01:41:43.888Z,75.42
2018-04-22T01:42:53.363Z,75.6
2018-04-22T01:44:03.088Z,75.6
2018-04-22T01:45:12.820Z,75.42
2018-04-22T01:46:22.291Z,75.6
2018-04-22T01:47:32.031Z,75.89
2018-04-22T01:48:42.029Z,75.42
2018-04-22T01:49:52.027Z,76.08
2018-04-22T01:51:01.768Z,75.51
2018-04-22T01:52:11.771Z,75.7
2018-04-22T01:53:21.767Z,75.32
2018-04-22T01:54:31.770Z,76.27
2018-04-22T01:55:41.233Z,76.27
2018-04-22T01:56:50.968Z,76.65
2018-04-22T01:58:00.702Z,76.36
2018-04-22T01:59:10.167Z,76.27
2018-04-22T02:00:20.172Z,76.74
2018-04-22T02:01:30.169Z,76.74
2018-04-22T02:02:44.877Z,77.03
2018-04-22T02:03:54.606Z,76.74
2018-04-22T02:05:04.615Z,76.55
2018-04-22T02:06:14.091Z,76.55
2018-04-22T02:07:23.828Z,77.4
2018-04-22T02:08:33.761Z,77.22
2018-04-22T02:09:43.772Z,77.5
2018-04-22T02:10:53.234Z,77.12
2018-04-22T02:12:03.311Z,77.03
2018-04-22T02:13:13.321Z,77.4
2018-04-22T02:14:22.838Z,77.69
2018-04-22T02:15:32.891Z,77.22
2018-04-22T02:16:42.910Z,77.5
2018-04-22T02:17:52.649Z,76.84
2018-04-22T02:19:02.388Z,76.65
2018-04-22T02:20:12.222Z,76.46
2018-04-22T02:21:21.428Z,77.03
2018-04-22T02:22:30.358Z,77.88
2018-04-22T02:23:40.092Z,77.59
2018-04-22T02:24:49.555Z,77.97
2018-04-22T02:25:59.021Z,78.35
2018-04-22T02:27:08.767Z,78.26
2018-04-22T02:28:18.269Z,78.83
2018-04-22T02:29:28.070Z,78.16
2018-04-22T02:30:37.534Z,78.22
2018-04-22T02:31:47.539Z,78.54
2018-04-22T02:32:57.019Z,78.16
2018-04-22T02:34:06.767Z,78.16
2018-04-22T02:35:16.783Z,78.03
2018-04-22T02:36:26.804Z,77.94
2018-04-22T02:37:37.164Z,77.97
2018-04-22T02:38:47.187Z,78.5
2018-04-22T02:39:56.919Z,78.31
2018-04-22T02:41:06.664Z,77.94
2018-04-22T02:42:16.675Z,77.94
2018-04-22T02:43:26.513Z,77.56
2018-04-22T02:44:36.437Z,77.94
2018-04-22T02:45:46.454Z,77.78
2018-04-22T02:46:56.187Z,77.4
2018-04-22T02:48:05.920Z,77.69
2018-04-22T02:49:15.658Z,78.35
2018-04-22T02:50:25.709Z,77.97
2018-04-22T02:51:35.170Z,78.5
2018-04-22T02:52:44.643Z,78.79
2018-04-22T02:53:54.644Z,78.79
2018-04-22T02:55:04.659Z,78.98
2018-04-22T02:56:14.415Z,78.79
2018-04-22T02:57:23.888Z,79.07
2018-04-22T02:58:33.635Z,79.17
2018-04-22T02:59:43.375Z,79.36
2018-04-22T03:03:28.045Z,80.4
2018-04-22T03:04:38.065Z,80.3
2018-04-22T03:05:48.056Z,80.3
2018-04-22T03:06:58.069Z,79.26
2018-04-22T03:08:07.265Z,79.64
2018-04-22T03:09:17.010Z,79.64
2018-04-22T03:10:27.023Z,79.93
2018-04-22T03:11:37.027Z,80.4
2018-04-22T03:12:46.811Z,81.15
2018-04-22T03:13:56.533Z,81.25
2018-04-22T03:15:06.001Z,81.68
2018-04-22T03:16:15.732Z,82.44
2018-04-22T03:17:25.472Z,82.25
2018-04-22T03:18:34.942Z,82.53
2018-04-22T03:19:44.674Z,82.15
2018-04-22T03:20:54.138Z,82.06
2018-04-22T03:22:04.141Z,81.68
2018-04-22T03:23:14.163Z,81.68
2018-04-22T03:24:23.626Z,82.25
2018-04-22T03:25:33.420Z,82.91
2018-04-22T03:26:43.204Z,84.05
2018-04-22T03:27:53.198Z,84.81
2018-04-22T03:29:03.206Z,84.42
2018-04-22T03:30:12.953Z,84.33
2018-04-22T03:31:22.956Z,84.61
2018-04-22T03:32:32.963Z,84.42
2018-04-22T03:33:42.695Z,83.76
2018-04-22T03:34:52.694Z,83.95
2018-04-22T03:36:02.700Z,83.86
2018-04-22T03:37:12.448Z,83.39
2018-04-22T03:38:22.449Z,83.48
2018-04-22T03:39:31.913Z,83.2
2018-04-22T03:40:41.645Z,83.95
2018-04-22T03:41:51.645Z,83.29
2018-04-22T03:43:01.120Z,83.2
2018-04-22T03:44:10.855Z,83.58
2018-04-22T03:45:20.871Z,84.61
2018-04-22T03:46:30.610Z,84.14
2018-04-22T03:47:40.075Z,84.33
2018-04-22T03:48:50.082Z,84.05
2018-04-22T03:50:00.077Z,83.76
2018-04-22T03:51:10.080Z,83.48
2018-04-22T03:52:19.810Z,83.95
2018-04-22T03:53:29.540Z,84.61
2018-04-22T03:54:39.557Z,84.23
2018-04-22T03:55:49.289Z,84.52
2018-04-22T03:56:59.284Z,85
2018-04-22T03:58:08.756Z,84.23
2018-04-22T03:59:18.756Z,84.14
2018-04-22T04:00:28.484Z,84.61
2018-04-22T04:01:37.945Z,84.81
2018-04-22T04:02:47.407Z,86.09
2018-04-22T04:03:57.405Z,86.51
2018-04-22T04:05:06.864Z,86.6
2018-04-22T04:06:16.882Z,86.85
2018-04-22T04:07:26.877Z,86.47
2018-04-22T04:08:36.876Z,85.9
2018-04-22T04:09:46.347Z,85.33
2018-04-22T04:10:56.368Z,86.09
2018-04-22T04:12:06.096Z,85.9
2018-04-22T04:13:15.925Z,86.98
2018-04-22T04:14:25.923Z,87.32
2018-04-22T04:15:35.121Z,87.32
2018-04-22T04:16:45.128Z,87.55
2018-04-22T04:17:55.126Z,87.27
2018-04-22T04:19:05.121Z,86.41
2018-04-22T04:20:14.853Z,85.9
2018-04-22T04:21:24.580Z,85.94
2018-04-22T04:22:34.311Z,86.13
2018-04-22T04:23:44.056Z,86.04
2018-04-22T04:24:53.617Z,86.22
2018-04-22T04:26:03.400Z,86.04
2018-04-22T04:27:12.870Z,86.32
2018-04-22T04:28:22.599Z,85.28
2018-04-22T04:29:32.327Z,84.81
2018-04-22T04:30:42.337Z,85.47
2018-04-22T04:31:52.448Z,85.19
2018-04-22T04:33:02.177Z,84.71
2018-04-22T04:34:11.646Z,84.71
2018-04-22T04:35:21.378Z,84.61
2018-04-22T04:36:31.117Z,83.86
2018-04-22T04:37:40.847Z,83.86
2018-04-22T04:38:50.854Z,83.86
2018-04-22T04:40:00.052Z,84.61
2018-04-22T04:41:09.254Z,83.58
2018-04-22T04:42:18.454Z,83.58
2018-04-22T04:43:28.225Z,83.39
2018-04-22T04:44:38.026Z,83.2
2018-04-22T04:45:48.063Z,82.72
2018-04-22T04:46:57.798Z,83.29
2018-04-22T04:48:07.546Z,83.52
2018-04-22T04:49:17.541Z,83.43
2018-04-22T04:50:27.006Z,83.24
2018-04-22T04:51:36.735Z,82.67
2018-04-22T04:52:46.210Z,82.95
2018-04-22T04:53:55.989Z,82.29
2018-04-22T04:55:05.991Z,82.57
2018-04-22T04:56:15.735Z,82.29
2018-04-22T04:57:25.509Z,82.29
2018-04-22T04:58:35.512Z,81.72
2018-04-22T04:59:45.520Z,81.63
2018-04-22T05:00:55.524Z,81.92
2018-04-22T05:02:05.317Z,81.34
2018-04-22T05:03:15.048Z,81.06
2018-04-22T05:04:24.789Z,80.87
2018-04-22T05:05:34.530Z,80.58
2018-04-22T05:06:44.531Z,80.3
2018-04-22T05:07:54.533Z,80.4
2018-04-22T05:09:04.006Z,79.83
2018-04-22T05:10:13.740Z,79.74
2018-04-22T05:11:23.471Z,80.02
2018-04-22T05:12:32.941Z,79.74
2018-04-22T05:13:42.943Z,79.83
2018-04-22T05:14:52.936Z,79.36
2018-04-22T05:16:02.939Z,79.45
2018-04-22T05:17:12.666Z,80.11
2018-04-22T05:18:21.867Z,79.83
2018-04-22T05:19:31.620Z,80.02
2018-04-22T05:20:41.088Z,79.77
2018-04-22T05:21:51.084Z,80.21
2018-04-22T05:23:00.824Z,79.87
2018-04-22T05:24:10.559Z,79.68
2018-04-22T05:25:20.677Z,79.55
2018-04-22T05:26:30.409Z,79.45
2018-04-22T05:27:39.881Z,79.74
2018-04-22T05:28:49.625Z,79.77
2018-04-22T05:29:59.360Z,79.21
2018-04-22T05:31:09.206Z,79.68
2018-04-22T05:32:19.376Z,79.39
2018-04-22T05:33:29.110Z,79.3
2018-04-22T05:34:38.570Z,79.3
2018-04-22T05:35:48.579Z,78.73
2018-04-22T05:36:58.585Z,78.54
2018-04-22T05:38:07.517Z,78.83
2018-04-22T05:39:16.984Z,78.83
2018-04-22T05:40:26.990Z,77.97
2018-04-22T05:41:37.046Z,78.45
2018-04-22T05:42:46.888Z,78.64
2018-04-22T05:43:56.622Z,79.44
2018-04-22T05:45:06.356Z,79.15
2018-04-22T05:46:16.365Z,78.96
2018-04-22T05:47:26.100Z,78.96
2018-04-22T05:48:36.100Z,78.3
2018-04-22T05:49:46.208Z,77.73
2018-04-22T05:50:56.216Z,77.54
2018-04-22T05:52:05.421Z,78.02
2018-04-22T05:53:15.426Z,77.92
2018-04-22T05:54:25.158Z,77.54
2018-04-22T05:55:34.625Z,77.64
2018-04-22T05:56:44.358Z,77.35
2018-04-22T05:57:54.359Z,76.82
2018-04-22T05:59:04.095Z,76.12
2018-04-22T06:00:13.575Z,75.84
2018-04-22T06:01:23.315Z,75.59
2018-04-22T06:02:33.322Z,75.59
2018-04-22T06:03:43.061Z,75.21
2018-04-22T06:04:53.064Z,75.87
2018-04-22T06:06:03.071Z,75.78
2018-04-22T06:07:13.088Z,75.59
2018-04-22T06:08:22.828Z,76.25
2018-04-22T06:09:32.559Z,76.44
2018-04-22T06:10:42.560Z,76.44
2018-04-22T06:11:52.561Z,75.59
2018-04-22T06:13:02.563Z,76.25
2018-04-22T06:14:12.032Z,75.59
2018-04-22T06:15:21.814Z,75.11
2018-04-22T06:16:31.280Z,74.92
2018-04-22T06:17:41.007Z,74.26
2018-04-22T06:18:50.535Z,74.64
2018-04-22T06:20:00.531Z,74.35
2018-04-22T06:21:10.544Z,73.54
2018-04-22T06:22:20.542Z,73.16
2018-04-22T06:23:30.289Z,74.58
2018-04-22T06:24:40.030Z,74.2
2018-04-22T06:25:49.764Z,74.11
2018-04-22T06:26:59.760Z,74.3
2018-04-22T06:28:09.234Z,73.25
2018-04-22T06:29:18.997Z,72.68
2018-04-22T06:30:28.470Z,72.97
2018-04-22T06:31:37.934Z,72.68
2018-04-22T06:32:47.946Z,73.44
2018-04-22T06:33:57.695Z,73.82
2018-04-22T06:35:07.165Z,73.25
2018-04-22T06:36:16.904Z,72.88
2018-04-22T06:37:26.941Z,73.16
2018-04-22T06:38:36.951Z,73.19
2018-04-22T06:39:47.030Z,73.54
2018-04-22T06:40:56.228Z,74.15
2018-04-22T06:42:05.698Z,74.9
2018-04-22T06:43:15.429Z,74.71
2018-04-22T06:44:25.160Z,74.15
2018-04-22T06:45:34.895Z,73
2018-04-22T06:46:44.893Z,72.44
2018-04-22T06:47:54.355Z,71.77
2018-04-22T06:49:04.390Z,70.73
2018-04-22T06:50:14.396Z,71.2
2018-04-22T06:51:24.147Z,71.01
2018-04-22T06:52:33.878Z,72.25
2018-04-22T06:53:43.884Z,71.81
2018-04-22T06:54:53.619Z,71.43
2018-04-22T06:56:03.360Z,70.48
2018-04-22T06:57:13.100Z,70.48
2018-04-22T06:58:22.840Z,70.38
2018-04-22T06:59:32.584Z,70.38
2018-04-22T07:00:42.319Z,70.29
2018-04-22T07:01:51.802Z,70.29
2018-04-22T07:03:01.270Z,69.71
2018-04-22T07:04:11.281Z,69.53
2018-04-22T07:05:21.040Z,69.24
2018-04-22T07:06:31.206Z,69.05
2018-04-22T07:07:41.311Z,69.05
2018-04-22T07:08:50.936Z,67.85
2018-04-22T07:10:00.671Z,66.61
2018-04-22T07:11:10.144Z,66.61
2018-04-22T07:12:19.881Z,67.06
2018-04-22T07:13:29.724Z,67.06
2018-04-22T07:14:39.729Z,66.24
2018-04-22T07:15:49.739Z,65.95
2018-04-22T07:16:59.753Z,66.61
2018-04-22T07:18:08.689Z,67
2018-04-22T07:19:18.164Z,67
2018-04-22T07:20:27.902Z,67.38
2018-04-22T07:21:37.920Z,67.09
2018-04-22T07:22:47.387Z,65.86
2018-04-22T07:23:56.903Z,66.24
2018-04-22T07:25:06.751Z,67.06
2018-04-22T07:26:16.757Z,66.96
2018-04-22T07:27:26.763Z,66.3
2018-04-22T07:28:36.229Z,66.58
2018-04-22T07:29:46.229Z,66.39
2018-04-22T07:30:56.237Z,66.39
2018-04-22T07:32:05.999Z,66.11
2018-04-22T07:33:16.158Z,66.96
2018-04-22T07:34:26.157Z,66.87
2018-04-22T07:35:35.363Z,67.82
2018-04-22T07:36:45.100Z,68.04
2018-04-22T07:37:55.111Z,69.09
2018-04-22T07:39:04.581Z,69.15
2018-04-22T07:40:14.052Z,69.24
2018-04-22T07:41:24.063Z,70.38
2018-04-22T07:42:34.206Z,71.14
2018-04-22T07:43:44.103Z,71.71
2018-04-22T07:44:53.842Z,71.9
2018-04-22T07:46:03.632Z,72.15
2018-04-22T07:47:13.636Z,72.63
2018-04-22T07:48:23.714Z,72.63
2018-04-22T07:49:33.446Z,73.48
2018-04-22T07:50:43.180Z,73
2018-04-22T07:51:52.924Z,71.77
2018-04-22T07:53:02.668Z,70.63
2018-04-22T07:54:12.762Z,69.78
2018-04-22T07:55:22.490Z,70.35
2018-04-22T07:56:32.515Z,69.68
2018-04-22T07:57:42.251Z,69.49
2018-04-22T07:58:52.249Z,69.05
2018-04-22T08:00:01.721Z,68.77
2018-04-22T08:01:11.732Z,68.48
2018-04-22T08:02:21.739Z,67.53
2018-04-22T08:03:31.479Z,66.67
2018-04-22T08:04:41.213Z,66.58
2018-04-22T08:05:51.257Z,66.3
2018-04-22T08:07:01.270Z,66.11
2018-04-22T08:08:11.000Z,65.92
2018-04-22T08:09:20.481Z,66.01
2018-04-22T08:10:30.498Z,66.2
2018-04-22T08:11:39.440Z,65.16
2018-04-22T08:12:49.187Z,66.11
2018-04-22T08:13:59.202Z,65.82
2018-04-22T08:15:08.399Z,66.39
2018-04-22T08:16:18.163Z,66.77
2018-04-22T08:17:28.395Z,67.63
2018-04-22T08:18:38.142Z,68.67
2018-04-22T08:19:48.149Z,68.35
2018-04-22T08:20:57.899Z,69.11
2018-04-22T08:22:07.911Z,69.4
2018-04-22T08:23:17.379Z,70.06
2018-04-22T08:24:27.115Z,70.73
2018-04-22T08:25:37.117Z,70.35
2018-04-22T08:26:47.125Z,70.06
2018-04-22T08:27:57.139Z,69.78
2018-04-22T08:29:06.888Z,70.06
2018-04-22T08:30:16.887Z,69.78
2018-04-22T08:31:26.911Z,69.68
2018-04-22T08:32:36.652Z,69.21
2018-04-22T08:33:46.656Z,69.3
2018-04-22T08:34:56.463Z,69.21
2018-04-22T08:36:05.664Z,69.02
2018-04-22T08:37:15.680Z,69.3
2018-04-22T08:38:25.685Z,68.26
2018-04-22T08:39:35.689Z,68.54
2018-04-22T08:40:45.430Z,68.44
2018-04-22T08:41:55.175Z,68.64
2018-04-22T08:43:04.647Z,68.64
2018-04-22T08:44:14.385Z,68.54
2018-04-22T08:45:24.131Z,69.02
2018-04-22T08:46:33.870Z,69.02
2018-04-22T08:47:43.877Z,68.92
2018-04-22T08:48:53.890Z,68.86
2018-04-22T08:50:03.361Z,68.39
2018-04-22T08:51:13.101Z,68.19
2018-04-22T08:52:22.840Z,68.86
2018-04-22T08:53:32.590Z,68.96
2018-04-22T08:54:42.601Z,68.35
2018-04-22T08:55:52.414Z,69.59
2018-04-22T08:57:01.946Z,69.34
2018-04-22T08:58:11.153Z,69.62
2018-04-22T08:59:21.156Z,68.39
2018-04-22T09:00:31.168Z,68.29
2018-04-22T09:01:41.184Z,68.29
2018-04-22T09:02:51.221Z,67.72
2018-04-22T09:04:01.106Z,68.1
2018-04-22T09:05:10.577Z,67.72
2018-04-22T09:06:20.591Z,68.29
2018-04-22T09:07:30.340Z,67.72
2018-04-22T09:08:40.078Z,68.1
2018-04-22T09:09:50.085Z,67.82
2018-04-22T09:10:59.834Z,67.06
2018-04-22T09:12:09.582Z,67.06
2018-04-22T09:13:19.592Z,66.39
2018-04-22T09:14:29.598Z,66.39
2018-04-22T09:15:39.609Z,66.87
2018-04-22T09:16:49.658Z,67.06
2018-04-22T09:17:59.132Z,67.06
2018-04-22T09:19:08.882Z,66.01
2018-04-22T09:20:18.361Z,68.19
2018-04-22T09:21:28.369Z,68.67
2018-04-22T09:22:38.117Z,66.96
2018-04-22T09:23:47.880Z,67.91
2018-04-22T09:24:57.620Z,68.29
2018-04-22T09:26:07.363Z,66.87
2018-04-22T09:27:17.373Z,66.39
2018-04-22T09:28:27.376Z,66.11
2018-04-22T09:29:37.115Z,65.92
2018-04-22T09:30:47.122Z,66.49
2018-04-22T09:31:56.585Z,65.86
2018-04-22T09:33:06.344Z,65.28
2018-04-22T09:34:16.545Z,64.69
2018-04-22T09:35:26.062Z,64.81
2018-04-22T09:36:36.062Z,64.9
2018-04-22T09:37:45.527Z,64.9
2018-04-22T09:38:54.996Z,64.9
2018-04-22T09:40:04.468Z,64.72
2018-04-22T09:41:13.683Z,64.43
2018-04-22T09:42:23.689Z,65.28
2018-04-22T09:43:33.439Z,64.72
2018-04-22T09:44:43.444Z,65.67
2018-04-22T09:45:53.244Z,65.09
2018-04-22T09:47:03.392Z,64.81
2018-04-22T09:48:13.402Z,64.9
2018-04-22T09:49:23.408Z,64.9
2018-04-22T09:50:33.437Z,64.81
2018-04-22T09:51:43.172Z,65
2018-04-22T09:52:53.178Z,65.47
2018-04-22T09:54:03.185Z,66.14
2018-04-22T09:55:13.234Z,65.76
2018-04-22T09:56:23.079Z,65.76
2018-04-22T09:57:33.076Z,65.95
2018-04-22T09:58:42.812Z,65.47
2018-04-22T09:59:52.550Z,65.19
2018-04-22T10:01:02.561Z,65.28
2018-04-22T10:02:12.571Z,65.09
2018-04-22T10:03:22.306Z,64.53
2018-04-22T10:04:31.785Z,64.65
2018-04-22T10:05:41.787Z,64.94
2018-04-22T10:06:51.792Z,64.27
2018-04-22T10:08:01.045Z,64.08
2018-04-22T10:09:11.094Z,63.89
2018-04-22T10:10:21.099Z,63.99
2018-04-22T10:11:31.107Z,64.46
2018-04-22T10:12:40.847Z,64.46
2018-04-22T10:13:50.321Z,63.51
2018-04-22T10:15:00.322Z,63.7
2018-04-22T10:16:09.801Z,62.65
2018-04-22T10:17:19.818Z,63.99
2018-04-22T10:18:29.292Z,63.99
2018-04-22T10:19:38.768Z,63.79
2018-04-22T10:20:48.779Z,62.46
2018-04-22T10:21:58.636Z,61.83
2018-04-22T10:23:08.663Z,62.12
2018-04-22T10:24:18.402Z,62.3
2018-04-22T10:25:28.134Z,61.74
2018-04-22T10:26:37.342Z,61.16
2018-04-22T10:27:46.851Z,61.35
2018-04-22T10:28:56.604Z,60.88
2018-04-22T10:30:06.355Z,61.35
2018-04-22T10:31:16.368Z,61.83
2018-04-22T10:32:26.376Z,60.6
2018-04-22T10:33:35.847Z,59.36
2018-04-22T10:34:45.695Z,58.79
2018-04-22T10:35:55.706Z,59.83
2018-04-22T10:37:05.528Z,60.41
2018-04-22T10:38:15.555Z,60.78
2018-04-22T10:39:25.308Z,59.74
2018-04-22T10:40:34.787Z,60.24
2018-04-22T10:41:44.535Z,60.34
2018-04-22T10:42:54.545Z,60.34
2018-04-22T10:44:04.552Z,60.05
2018-04-22T10:45:14.555Z,60.05
2018-04-22T10:46:24.564Z,60.05
2018-04-22T10:47:34.310Z,59.29
2018-04-22T10:48:44.047Z,59.1
2018-04-22T10:49:54.059Z,58.15
2018-04-22T10:51:04.065Z,56.82
2018-04-22T10:52:13.546Z,57.48
2018-04-22T10:53:23.303Z,57.29
2018-04-22T10:54:32.783Z,56.92
2018-04-22T10:55:42.831Z,57.48
2018-04-22T10:56:52.851Z,56.82
2018-04-22T10:58:03.077Z,57.77
2018-04-22T10:59:13.383Z,58.37
2018-04-22T11:00:23.454Z,57.7
2018-04-22T11:01:33.210Z,56.85
2018-04-22T11:02:43.237Z,55.8
2018-04-22T11:03:52.976Z,57.6
2018-04-22T11:05:02.207Z,57.82
2018-04-22T11:06:11.762Z,56.78
2018-04-22T11:07:21.805Z,53.35
2018-04-22T11:08:31.069Z,52.97
2018-04-22T11:09:40.806Z,54.04
2018-04-22T11:10:50.545Z,53
2018-04-22T11:12:00.017Z,52.23
2018-04-22T11:13:09.768Z,52.16
2018-04-22T11:14:19.606Z,51.59
2018-04-22T11:15:29.127Z,50.54
2018-04-22T11:16:38.861Z,50.95
2018-04-22T11:17:48.344Z,50.38
2018-04-22T11:18:57.813Z,50.88
2018-04-22T11:20:07.291Z,50.49
2018-04-22T11:21:16.770Z,49.57
2018-04-22T11:22:26.780Z,48.83
2018-04-22T11:23:36.785Z,47.32
2018-04-22T11:24:46.810Z,46.61
2018-04-22T11:25:56.826Z,46.34
2018-04-22T11:27:06.597Z,45.02
2018-04-22T11:28:16.334Z,43.63
2018-04-22T11:29:26.078Z,42.69
2018-04-22T11:30:35.821Z,41.37
2018-04-22T11:31:45.569Z,41.96
2018-04-22T11:32:55.578Z,40.66
2018-04-22T11:34:05.594Z,38.84
2018-04-22T11:35:15.335Z,38.18
2018-04-22T11:36:24.815Z,38.39
2018-04-22T11:37:34.830Z,36.77
2018-04-22T11:38:44.844Z,35.54
2018-04-22T11:39:54.592Z,34.17
2018-04-22T11:41:04.612Z,34.16
2018-04-22T11:42:14.625Z,37.04
2018-04-22T11:43:24.644Z,35.14
2018-04-22T11:44:33.861Z,35.25
2018-04-22T11:45:43.620Z,34.5
2018-04-22T11:46:53.656Z,31.9
2018-04-22T11:48:03.139Z,31.6
2018-04-22T11:49:12.626Z,31.6
2018-04-22T11:50:22.644Z,33.44
2018-04-22T11:51:32.658Z,32.79
2018-04-22T11:52:42.241Z,31.17
2018-04-22T11:53:52.269Z,31.68
2018-04-22T11:55:02.028Z,31.02
2018-04-22T11:56:11.795Z,31.04
2018-04-22T11:57:21.820Z,30.66
2018-04-22T11:58:31.628Z,30
2018-04-22T11:59:41.388Z,29.71
2018-04-22T12:00:50.891Z,28.38
2018-04-22T12:02:00.921Z,28.68
2018-04-22T12:03:10.409Z,28.87
2018-04-22T12:04:20.168Z,26.85
2018-04-22T12:05:29.933Z,26.27
2018-04-22T12:06:39.684Z,26.85
2018-04-22T12:07:49.707Z,26.56
2018-04-22T12:08:59.734Z,26.57
2018-04-22T12:10:09.492Z,25.79
2018-04-22T12:11:18.982Z,25.32
2018-04-22T12:12:29.012Z,24.76
2018-04-22T12:13:39.039Z,24.84
2018-04-22T12:14:48.794Z,25.53
2018-04-22T12:15:58.563Z,25.04
2018-04-22T12:17:08.067Z,24.87
2018-04-22T12:18:17.552Z,24.49
2018-04-22T12:19:27.320Z,24.29
2018-04-22T12:20:37.445Z,23.91
2018-04-22T12:21:47.686Z,22.94
2018-04-22T12:22:57.453Z,23.04
2018-04-22T12:24:07.474Z,22.86
2018-04-22T12:25:17.245Z,22.86
2018-04-22T12:26:26.734Z,21.69
2018-04-22T12:27:36.484Z,22.28
2018-04-22T12:28:46.251Z,21.7
2018-04-22T12:29:56.278Z,21.91
2018-04-22T12:31:06.046Z,21.51
2018-04-22T12:32:15.812Z,21.61
2018-04-22T12:33:25.855Z,21.32
2018-04-22T12:34:35.885Z,20.84
2018-04-22T12:35:45.375Z,20.64
2018-04-22T12:36:54.874Z,21.03
2018-04-22T12:38:04.369Z,21.03
2018-04-22T12:39:14.412Z,21.7
2018-04-22T12:40:23.908Z,21.22
2018-04-22T12:41:33.677Z,21.5
2018-04-22T12:42:42.902Z,20.74
2018-04-22T12:43:52.946Z,20.63
2018-04-22T12:45:02.709Z,20.73
2018-04-22T12:46:12.464Z,20.35
2018-04-22T12:47:22.217Z,20.06
2018-04-22T12:48:32.251Z,20.45
2018-04-22T12:49:42.283Z,18.88
2018-04-22T12:50:51.516Z,20.45
2018-04-22T12:52:01.012Z,20.06
2018-04-22T12:53:10.765Z,19.19
2018-04-22T12:54:20.517Z,19.29
2018-04-22T12:55:30.010Z,18.32
2018-04-22T12:56:40.052Z,18.8
2018-04-22T12:57:50.076Z,18.42
2018-04-22T12:59:00.098Z,18.72
2018-04-22T13:00:09.863Z,18.52
2018-04-22T13:01:19.895Z,18.34
2018-04-22T13:02:29.660Z,18.82
2018-04-22T13:03:39.691Z,18.73
2018-04-22T13:04:49.739Z,17.66
2018-04-22T13:05:59.519Z,17.96
2018-04-22T13:07:09.386Z,17.97
2018-04-22T13:08:18.880Z,16.88
2018-04-22T13:09:28.101Z,17.18
2018-04-22T13:10:37.856Z,17.27
2018-04-22T13:11:47.370Z,17.96
2018-04-22T13:12:57.148Z,17.37
2018-04-22T13:14:07.002Z,17.76
2018-04-22T13:15:16.241Z,17.76
2018-04-22T13:16:25.998Z,17.47
2018-04-22T13:17:35.753Z,17.76
2018-04-22T13:18:45.512Z,17.76
2018-04-22T13:19:55.532Z,17.55
2018-04-22T13:21:05.553Z,17.55
2018-04-22T13:22:15.315Z,17.64
2018-04-22T13:23:25.345Z,17.72
2018-04-22T13:24:35.371Z,18.4
2018-04-22T13:25:45.211Z,18.4
2018-04-22T13:26:55.041Z,17.61
2018-04-22T13:28:04.811Z,18.59
2018-04-22T13:29:14.561Z,17.91
2018-04-22T13:30:24.320Z,17.52
2018-04-22T13:31:34.093Z,17.05
2018-04-22T13:32:44.345Z,17.91
2018-04-22T13:33:54.376Z,17.44
2018-04-22T13:35:04.136Z,17.53
2018-04-22T13:36:13.628Z,17.53
2018-04-22T13:37:23.652Z,18.32
2018-04-22T13:38:33.208Z,17.25
2018-04-22T13:39:43.234Z,16.96
2018-04-22T13:40:52.460Z,16.56
2018-04-22T13:42:02.497Z,16.95
2018-04-22T13:43:11.988Z,17.53
2018-04-22T13:44:21.756Z,16.64
2018-04-22T13:45:31.778Z,17.8
2018-04-22T13:46:41.806Z,17.9
2018-04-22T13:47:51.831Z,17.71
2018-04-22T13:49:01.921Z,18.59
2018-04-22T13:50:11.683Z,18.19
2018-04-22T13:51:21.448Z,17.43
2018-04-22T13:52:31.220Z,17.23
2018-04-22T13:53:41.243Z,17.43
2018-04-22T13:54:51.007Z,17.24
2018-04-22T13:56:00.496Z,16.86
2018-04-22T13:57:10.518Z,17.35
2018-04-22T13:58:20.543Z,16.88
2018-04-22T13:59:30.567Z,17.08
2018-04-22T14:00:40.059Z,15.92
2018-04-22T14:01:49.867Z,15.92
2018-04-22T14:02:59.889Z,15.83
2018-04-22T14:04:09.913Z,16.32
2018-04-22T14:05:19.672Z,16.03
2018-04-22T14:06:29.161Z,15.25
2018-04-22T14:07:39.198Z,15.55
2018-04-22T14:08:49.231Z,15.26
2018-04-22T14:09:58.725Z,14.67
2018-04-22T14:11:08.482Z,15.35
2018-04-22T14:12:17.970Z,15.26
2018-04-22T14:13:27.728Z,14.58
2018-04-22T14:14:37.221Z,14.78
2018-04-22T14:15:47.255Z,15.18
2018-04-22T14:16:57.284Z,14.79
2018-04-22T14:18:07.137Z,14.3
2018-04-22T14:19:16.902Z,13.92
2018-04-22T14:20:26.408Z,14.51
2018-04-22T14:21:36.446Z,14.01
2018-04-22T14:22:46.212Z,13.53
2018-04-22T14:23:55.973Z,14.2
2018-04-22T14:25:05.779Z,13.23
2018-04-22T14:26:15.704Z,13.9
2018-04-22T14:27:25.197Z,14.1
2018-04-22T14:28:35.224Z,14.39
2018-04-22T14:29:44.713Z,14
2018-04-22T14:30:54.204Z,13.9
2018-04-22T14:32:03.697Z,14
2018-04-22T14:33:13.722Z,14.38
2018-04-22T14:34:23.754Z,13.79
2018-04-22T14:35:33.791Z,14.48
2018-04-22T14:36:43.333Z,14.18
2018-04-22T14:37:53.090Z,14.97
2018-04-22T14:39:02.581Z,14.58
2018-04-22T14:40:12.354Z,14.48
2018-04-22T14:41:22.379Z,14.2
2018-04-22T14:42:32.141Z,14.1
2018-04-22T14:43:42.164Z,14.29
2018-04-22T14:44:51.997Z,13.9
2018-04-22T14:46:01.171Z,13.9
2018-04-22T14:47:10.933Z,14.58
2018-04-22T14:48:20.953Z,14.38
2018-04-22T14:49:30.447Z,14.78
2018-04-22T14:50:40.558Z,14.19
2018-04-22T14:51:50.552Z,13.71
2018-04-22T14:53:00.687Z,13.51
2018-04-22T14:54:10.719Z,13.42
2018-04-22T14:55:20.748Z,12.35
2018-04-22T14:56:30.503Z,12.55
2018-04-22T14:57:40.541Z,13.34
2018-04-22T14:58:50.458Z,13.34
2018-04-22T15:00:00.493Z,13.14
2018-04-22T15:01:10.531Z,12.45
2018-04-22T15:02:20.558Z,12.45
2018-04-22T15:03:30.054Z,11.47
2018-04-22T15:04:40.073Z,12.23
2018-04-22T15:05:50.099Z,12.41